General Aviation Weather

Text Reports

Enter one or more of the following location identifiers separated by a space:

Zip Code, Four-Character ICAO or Three-Character IATA airport codes.

METAR - Aviation Routine Weather Report
LGBL - Anchialos,
Updated at 4:20 PM GMT on April 24, 2014 (7:20 PM EEST):
METAR LGBL 241620Z VRB03KT 9999 SCT030 BKN080 19/13 Q1006 NOSIG
TAF - Terminal Area Forecast
LGBL - Anchialos,
Updated at 4:20 PM GMT on April 24, 2014 (7:20 PM EEST):
No TAF is currently available for this location.
Decoded:
No decoded TAF is available.
PIREP - Pilot Weather Report
LGBL - Anchialos,
Updated at 4:20 PM GMT on April 24, 2014 (7:20 PM EEST):
No PIREP is currently available for this location.
AIRMET - Airmens Meteorological Information
LGBL - Anchialos,
Updated at 4:20 PM GMT on April 24, 2014 (7:20 PM EEST):
No AIRMET is currently available for this location.
SIGMET - Significant Meteorological Information
LGBL - Anchialos,
Updated at 4:20 PM GMT on April 24, 2014 (7:20 PM EEST):
No SIGMET is currently available for this location.
NOTAM - Notice to Airmen
LGBL - Anchialos,
Updated at 4:20 PM GMT on April 24, 2014 (7:20 PM EEST):
No NOTAM is currently available for this location.
Forecast Area
LGBL - Anchialos,
Updated at 4:20 PM GMT on April 24, 2014 (7:20 PM EEST):
No NOTAM is currently available for this location.
Aviation Weather Maps